sensor_id;sensor_type;location;lat;lon;timestamp;pressure;altitude;pressure_sealevel;temperature;humidity
30073;BME280;16897;52.422;13.678;2022-10-16T00:01:12;100786.13;;;17.13;61.38
30073;BME280;16897;52.422;13.678;2022-10-16T00:05:18;100792.81;;;17.17;61.52
30073;BME280;16897;52.422;13.678;2022-10-16T00:09:19;100777.38;;;17.01;61.47
30073;BME280;16897;52.422;13.678;2022-10-16T00:13:21;100813.81;;;17.18;61.65
30073;BME280;16897;52.422;13.678;2022-10-16T00:17:23;100835.66;;;17.20;61.60
30073;BME280;16897;52.422;13.678;2022-10-16T00:21:29;100821.72;;;17.18;61.60
30073;BME280;16897;52.422;13.678;2022-10-16T00:25:31;100825.91;;;17.21;61.76
30073;BME280;16897;52.422;13.678;2022-10-16T00:29:37;100814.75;;;17.17;61.55
30073;BME280;16897;52.422;13.678;2022-10-16T00:33:40;100803.75;;;17.12;61.87
30073;BME280;16897;52.422;13.678;2022-10-16T00:37:42;100786.53;;;16.97;61.60
30073;BME280;16897;52.422;13.678;2022-10-16T00:41:44;100803.56;;;17.04;61.57
30073;BME280;16897;52.422;13.678;2022-10-16T00:45:45;100823.66;;;17.16;61.86
30073;BME280;16897;52.422;13.678;2022-10-16T00:49:48;100820.78;;;17.08;61.91
30073;BME280;16897;52.422;13.678;2022-10-16T00:53:51;100837.16;;;17.34;61.92
30073;BME280;16897;52.422;13.678;2022-10-16T00:57:54;100812.13;;;17.17;62.03
30073;BME280;16897;52.422;13.678;2022-10-16T01:01:56;100823.50;;;17.29;61.99
30073;BME280;16897;52.422;13.678;2022-10-16T01:10:40;100825.97;;;17.31;62.12
30073;BME280;16897;52.422;13.678;2022-10-16T01:15:01;100839.78;;;17.34;61.83
30073;BME280;16897;52.422;13.678;2022-10-16T01:19:16;100850.22;;;17.36;62.13
30073;BME280;16897;52.422;13.678;2022-10-16T01:23:44;100798.72;;;17.09;62.13
30073;BME280;16897;52.422;13.678;2022-10-16T01:27:51;100835.59;;;17.32;61.72
30073;BME280;16897;52.422;13.678;2022-10-16T01:32:09;100855.22;;;17.39;61.94
30073;BME280;16897;52.422;13.678;2022-10-16T01:36:21;100855.22;;;17.39;62.03
30073;BME280;16897;52.422;13.678;2022-10-16T01:40:26;100811.22;;;17.07;62.09
30073;BME280;16897;52.422;13.678;2022-10-16T01:44:32;100864.84;;;17.40;61.98
30073;BME280;16897;52.422;13.678;2022-10-16T01:48:36;100866.78;;;17.38;62.34
30073;BME280;16897;52.422;13.678;2022-10-16T01:52:42;100866.19;;;17.34;61.89
30073;BME280;16897;52.422;13.678;2022-10-16T01:56:46;100867.50;;;17.40;61.93
30073;BME280;16897;52.422;13.678;2022-10-16T02:00:51;100871.06;;;17.39;62.25
30073;BME280;16897;52.422;13.678;2022-10-16T02:05:40;100885.00;;;17.41;62.12
30073;BME280;16897;52.422;13.678;2022-10-16T02:09:43;100883.06;;;17.43;61.99
30073;BME280;16897;52.422;13.678;2022-10-16T02:14:00;100876.59;;;17.36;62.02
30073;BME280;16897;52.422;13.678;2022-10-16T02:18:05;100866.44;;;17.31;62.19
30073;BME280;16897;52.422;13.678;2022-10-16T02:22:11;100901.88;;;17.50;62.16
30073;BME280;16897;52.422;13.678;2022-10-16T02:26:33;100897.81;;;17.45;62.37
30073;BME280;16897;52.422;13.678;2022-10-16T02:31:04;100898.28;;;17.51;62.12
30073;BME280;16897;52.422;13.678;2022-10-16T02:35:08;100885.59;;;17.44;62.34
30073;BME280;16897;52.422;13.678;2022-10-16T02:39:11;100881.22;;;17.55;62.23
30073;BME280;16897;52.422;13.678;2022-10-16T02:43:13;100870.09;;;17.51;62.19
30073;BME280;16897;52.422;13.678;2022-10-16T02:47:15;100878.13;;;17.50;62.24
30073;BME280;16897;52.422;13.678;2022-10-16T02:51:16;100890.47;;;17.49;62.19
30073;BME280;16897;52.422;13.678;2022-10-16T02:55:18;100900.06;;;17.61;62.35
30073;BME280;16897;52.422;13.678;2022-10-16T02:59:20;100900.31;;;17.58;62.36
30073;BME280;16897;52.422;13.678;2022-10-16T03:03:22;100912.66;;;17.58;62.40
30073;BME280;16897;52.422;13.678;2022-10-16T03:07:24;100907.06;;;17.51;62.37
30073;BME280;16897;52.422;13.678;2022-10-16T03:11:25;100924.91;;;17.59;62.38
30073;BME280;16897;52.422;13.678;2022-10-16T03:15:28;100916.53;;;17.54;62.14
30073;BME280;16897;52.422;13.678;2022-10-16T03:19:31;100929.38;;;17.58;62.17
30073;BME280;16897;52.422;13.678;2022-10-16T03:23:32;100919.41;;;17.51;62.25
30073;BME280;16897;52.422;13.678;2022-10-16T03:27:34;100909.59;;;17.41;62.19
30073;BME280;16897;52.422;13.678;2022-10-16T03:31:36;100915.94;;;17.50;62.50
30073;BME280;16897;52.422;13.678;2022-10-16T03:35:37;100917.25;;;17.56;62.21
30073;BME280;16897;52.422;13.678;2022-10-16T03:39:39;100915.34;;;17.46;62.49
30073;BME280;16897;52.422;13.678;2022-10-16T03:43:41;100925.78;;;17.48;62.16
30073;BME280;16897;52.422;13.678;2022-10-16T03:47:43;100928.28;;;17.50;62.31
30073;BME280;16897;52.422;13.678;2022-10-16T03:51:45;100955.78;;;17.58;62.48
30073;BME280;16897;52.422;13.678;2022-10-16T03:55:46;100959.09;;;17.60;62.25
30073;BME280;16897;52.422;13.678;2022-10-16T03:59:48;100973.53;;;17.56;62.41
30073;BME280;16897;52.422;13.678;2022-10-16T04:03:50;100981.94;;;17.61;62.45
30073;BME280;16897;52.422;13.678;2022-10-16T04:07:51;100964.66;;;17.46;62.42
30073;BME280;16897;52.422;13.678;2022-10-16T04:11:53;100965.13;;;17.51;62.62
30073;BME280;16897;52.422;13.678;2022-10-16T04:15:55;100972.59;;;17.46;62.24
30073;BME280;16897;52.422;13.678;2022-10-16T04:19:56;100987.72;;;17.55;62.35
30073;BME280;16897;52.422;13.678;2022-10-16T04:23:58;100988.78;;;17.53;62.31
30073;BME280;16897;52.422;13.678;2022-10-16T04:28:00;101004.50;;;17.54;62.45
30073;BME280;16897;52.422;13.678;2022-10-16T04:32:02;100981.97;;;17.50;62.50
30073;BME280;16897;52.422;13.678;2022-10-16T04:36:04;100995.63;;;17.55;62.48
30073;BME280;16897;52.422;13.678;2022-10-16T04:40:06;100996.06;;;17.60;62.32
30073;BME280;16897;52.422;13.678;2022-10-16T04:44:08;100984.94;;;17.57;62.58
30073;BME280;16897;52.422;13.678;2022-10-16T04:48:10;100978.94;;;17.55;62.46
30073;BME280;16897;52.422;13.678;2022-10-16T04:52:11;100990.22;;;17.57;62.34
30073;BME280;16897;52.422;13.678;2022-10-16T04:56:13;100975.81;;;17.50;62.34
30073;BME280;16897;52.422;13.678;2022-10-16T05:00:16;100976.31;;;17.43;62.26
30073;BME280;16897;52.422;13.678;2022-10-16T05:04:18;100987.47;;;17.47;62.54
30073;BME280;16897;52.422;13.678;2022-10-16T05:08:20;100986.63;;;17.46;62.47
30073;BME280;16897;52.422;13.678;2022-10-16T05:12:21;100959.91;;;17.29;62.50
30073;BME280;16897;52.422;13.678;2022-10-16T05:16:23;101001.06;;;17.42;62.39
30073;BME280;16897;52.422;13.678;2022-10-16T05:20:25;100993.50;;;17.27;62.57
30073;BME280;16897;52.422;13.678;2022-10-16T05:24:26;101016.03;;;17.31;62.34
30073;BME280;16897;52.422;13.678;2022-10-16T05:28:29;101017.38;;;17.25;62.22
30073;BME280;16897;52.422;13.678;2022-10-16T05:32:31;101050.16;;;17.34;62.35
30073;BME280;16897;52.422;13.678;2022-10-16T05:36:33;101042.69;;;17.28;62.27
30073;BME280;16897;52.422;13.678;2022-10-16T05:40:34;101006.47;;;17.18;62.40
30073;BME280;16897;52.422;13.678;2022-10-16T05:44:36;101003.94;;;17.17;62.26
30073;BME280;16897;52.422;13.678;2022-10-16T05:48:38;100982.34;;;17.00;62.25
30073;BME280;16897;52.422;13.678;2022-10-16T05:52:40;100971.56;;;16.92;62.31
30073;BME280;16897;52.422;13.678;2022-10-16T05:56:41;101023.47;;;17.14;62.44
30073;BME280;16897;52.422;13.678;2022-10-16T06:00:43;101007.31;;;16.96;62.63
30073;BME280;16897;52.422;13.678;2022-10-16T06:04:45;101044.97;;;17.21;62.62
30073;BME280;16897;52.422;13.678;2022-10-16T06:08:48;101040.53;;;17.21;62.79
30073;BME280;16897;52.422;13.678;2022-10-16T06:12:50;101048.44;;;17.21;62.70
30073;BME280;16897;52.422;13.678;2022-10-16T06:16:52;101024.69;;;17.10;62.42
30073;BME280;16897;52.422;13.678;2022-10-16T06:20:56;101002.38;;;16.92;62.50
30073;BME280;16897;52.422;13.678;2022-10-16T06:24:57;101042.94;;;17.13;62.44
30073;BME280;16897;52.422;13.678;2022-10-16T06:29:00;101046.16;;;17.17;62.49
30073;BME280;16897;52.422;13.678;2022-10-16T06:33:02;101059.00;;;17.21;62.76
30073;BME280;16897;52.422;13.678;2022-10-16T06:37:03;101059.00;;;17.21;62.67
30073;BME280;16897;52.422;13.678;2022-10-16T06:41:06;101065.13;;;17.22;62.55
30073;BME280;16897;52.422;13.678;2022-10-16T06:45:08;101054.31;;;17.25;62.63
30073;BME280;16897;52.422;13.678;2022-10-16T06:49:09;101060.56;;;17.24;62.60
30073;BME280;16897;52.422;13.678;2022-10-16T06:53:11;101065.25;;;17.20;62.80
30073;BME280;16897;52.422;13.678;2022-10-16T06:57:12;101071.63;;;17.18;62.65
30073;BME280;16897;52.422;13.678;2022-10-16T07:01:16;101099.56;;;17.32;62.80
30073;BME280;16897;52.422;13.678;2022-10-16T07:05:18;101097.66;;;17.34;62.98
30073;BME280;16897;52.422;13.678;2022-10-16T07:09:20;101082.66;;;17.23;62.82
30073;BME280;16897;52.422;13.678;2022-10-16T07:13:21;101096.44;;;17.38;63.01
30073;BME280;16897;52.422;13.678;2022-10-16T07:17:23;101104.13;;;17.41;62.96
30073;BME280;16897;52.422;13.678;2022-10-16T07:21:28;101114.94;;;17.49;63.11
30073;BME280;16897;52.422;13.678;2022-10-16T07:25:30;101125.25;;;17.52;62.95
30073;BME280;16897;52.422;13.678;2022-10-16T07:29:32;101120.34;;;17.59;63.27
30073;BME280;16897;52.422;13.678;2022-10-16T07:33:35;101118.78;;;17.67;63.12
30073;BME280;16897;52.422;13.678;2022-10-16T07:37:36;101118.53;;;17.70;63.19
30073;BME280;16897;52.422;13.678;2022-10-16T07:41:38;101128.16;;;17.83;63.15
30073;BME280;16897;52.422;13.678;2022-10-16T07:45:48;101134.16;;;17.96;63.30
30073;BME280;16897;52.422;13.678;2022-10-16T07:49:50;101130.41;;;18.10;63.44
30073;BME280;16897;52.422;13.678;2022-10-16T07:53:52;101133.13;;;18.20;63.34
30073;BME280;16897;52.422;13.678;2022-10-16T07:57:54;101126.03;;;18.31;63.71
30073;BME280;16897;52.422;13.678;2022-10-16T08:01:56;101134.75;;;18.43;63.54
30073;BME280;16897;52.422;13.678;2022-10-16T08:05:59;101132.56;;;18.48;63.63
30073;BME280;16897;52.422;13.678;2022-10-16T08:10:01;101122.09;;;18.58;63.66
30073;BME280;16897;52.422;13.678;2022-10-16T08:14:04;101149.44;;;18.68;63.50
30073;BME280;16897;52.422;13.678;2022-10-16T08:18:05;101145.44;;;18.74;63.61
30073;BME280;16897;52.422;13.678;2022-10-16T08:22:07;101139.94;;;18.77;63.44
30073;BME280;16897;52.422;13.678;2022-10-16T08:26:09;101157.22;;;18.81;63.29
30073;BME280;16897;52.422;13.678;2022-10-16T08:30:11;101166.22;;;18.90;63.64
30073;BME280;16897;52.422;13.678;2022-10-16T08:34:12;101122.25;;;18.77;63.61
30073;BME280;16897;52.422;13.678;2022-10-16T08:38:14;101170.50;;;19.02;63.34
30073;BME280;16897;52.422;13.678;2022-10-16T08:47:09;101175.59;;;19.15;63.35
30073;BME280;16897;52.422;13.678;2022-10-16T08:51:35;101165.00;;;19.15;63.47
30073;BME280;16897;52.422;13.678;2022-10-16T08:55:50;101150.41;;;19.20;63.59
30073;BME280;16897;52.422;13.678;2022-10-16T08:59:53;101158.47;;;19.40;63.39
30073;BME280;16897;52.422;13.678;2022-10-16T09:12:54;101174.16;;;19.53;63.11
30073;BME280;16897;52.422;13.678;2022-10-16T09:21:44;101173.88;;;19.56;63.17
30073;BME280;16897;52.422;13.678;2022-10-16T09:25:49;101182.75;;;19.66;63.38
30073;BME280;16897;52.422;13.678;2022-10-16T09:29:51;101183.44;;;19.68;63.37
30073;BME280;16897;52.422;13.678;2022-10-16T09:34:00;101195.50;;;19.82;63.06
30073;BME280;16897;52.422;13.678;2022-10-16T09:38:06;101207.81;;;19.93;62.83
30073;BME280;16897;52.422;13.678;2022-10-16T09:42:13;101197.09;;;19.94;63.05
30073;BME280;16897;52.422;13.678;2022-10-16T09:46:44;101191.38;;;19.99;63.27
30073;BME280;16897;52.422;13.678;2022-10-16T09:51:00;101211.81;;;20.18;63.16
30073;BME280;16897;52.422;13.678;2022-10-16T09:55:14;101215.16;;;20.20;62.90
30073;BME280;16897;52.422;13.678;2022-10-16T09:59:19;101230.56;;;20.36;63.19
30073;BME280;16897;52.422;13.678;2022-10-16T10:03:47;101215.75;;;20.33;62.98
30073;BME280;16897;52.422;13.678;2022-10-16T10:08:02;101225.41;;;20.44;62.82
30073;BME280;16897;52.422;13.678;2022-10-16T10:12:19;101231.63;;;20.54;62.55
30073;BME280;16897;52.422;13.678;2022-10-16T10:16:25;101234.81;;;20.58;62.90
30073;BME280;16897;52.422;13.678;2022-10-16T10:20:30;101253.56;;;20.75;62.47
30073;BME280;16897;52.422;13.678;2022-10-16T10:24:35;101178.91;;;20.40;62.69
30073;BME280;16897;52.422;13.678;2022-10-16T10:29:00;101242.69;;;20.88;62.56
30073;BME280;16897;52.422;13.678;2022-10-16T10:38:02;101259.75;;;21.05;62.47
30073;BME280;16897;52.422;13.678;2022-10-16T10:42:43;101244.81;;;21.04;62.07
30073;BME280;16897;52.422;13.678;2022-10-16T10:47:01;101228.03;;;21.04;62.49
30073;BME280;16897;52.422;13.678;2022-10-16T11:00:28;101270.50;;;21.33;62.19
30073;BME280;16897;52.422;13.678;2022-10-16T11:09:42;101273.00;;;21.34;61.62
30073;BME280;16897;52.422;13.678;2022-10-16T11:14:15;101264.78;;;21.37;61.84
30073;BME280;16897;52.422;13.678;2022-10-16T11:18:32;101274.84;;;21.43;61.41
30073;BME280;16897;52.422;13.678;2022-10-16T11:26:52;101259.19;;;21.40;61.35
30073;BME280;16897;52.422;13.678;2022-10-16T11:31:39;101283.94;;;21.60;61.19
30073;BME280;16897;52.422;13.678;2022-10-16T11:40:34;101281.66;;;21.75;61.06
30073;BME280;16897;52.422;13.678;2022-10-16T11:57:31;101272.06;;;22.02;60.40
30073;BME280;16897;52.422;13.678;2022-10-16T12:01:46;101269.94;;;22.05;60.28
30073;BME280;16897;52.422;13.678;2022-10-16T12:10:29;101297.34;;;22.25;59.99
30073;BME280;16897;52.422;13.678;2022-10-16T12:14:39;101281.38;;;22.25;59.77
30073;BME280;16897;52.422;13.678;2022-10-16T12:18:46;101275.19;;;22.25;59.40
30073;BME280;16897;52.422;13.678;2022-10-16T12:22:53;101277.19;;;22.23;59.77
30073;BME280;16897;52.422;13.678;2022-10-16T12:26:56;101281.81;;;22.21;59.46
30073;BME280;16897;52.422;13.678;2022-10-16T12:31:04;101293.53;;;22.28;59.40
30073;BME280;16897;52.422;13.678;2022-10-16T12:35:25;101286.69;;;22.25;58.90
30073;BME280;16897;52.422;13.678;2022-10-16T12:39:28;101289.59;;;22.32;58.86
30073;BME280;16897;52.422;13.678;2022-10-16T12:43:40;101304.28;;;22.36;58.78
30073;BME280;16897;52.422;13.678;2022-10-16T12:47:50;101302.91;;;22.32;59.05
30073;BME280;16897;52.422;13.678;2022-10-16T12:51:52;101307.63;;;22.38;58.58
30073;BME280;16897;52.422;13.678;2022-10-16T12:56:22;101306.47;;;22.41;58.70
30073;BME280;16897;52.422;13.678;2022-10-16T13:00:50;101310.28;;;22.38;58.32
30073;BME280;16897;52.422;13.678;2022-10-16T13:05:35;101330.53;;;22.49;58.32
30073;BME280;16897;52.422;13.678;2022-10-16T13:09:49;101323.25;;;22.51;58.05
30073;BME280;16897;52.422;13.678;2022-10-16T13:18:22;101338.78;;;22.56;58.16
30073;BME280;16897;52.422;13.678;2022-10-16T13:31:19;101345.09;;;22.54;57.66
30073;BME280;16897;52.422;13.678;2022-10-16T13:35:32;101357.13;;;22.59;57.26
30073;BME280;16897;52.422;13.678;2022-10-16T13:39:34;101344.25;;;22.54;57.24
30073;BME280;16897;52.422;13.678;2022-10-16T13:43:41;101348.75;;;22.53;57.31
30073;BME280;16897;52.422;13.678;2022-10-16T13:47:44;101362.84;;;22.64;57.04
30073;BME280;16897;52.422;13.678;2022-10-16T13:51:59;101365.25;;;22.57;57.06
30073;BME280;16897;52.422;13.678;2022-10-16T13:56:09;101351.84;;;22.49;56.99
30073;BME280;16897;52.422;13.678;2022-10-16T14:00:38;101363.59;;;22.56;56.80
30073;BME280;16897;52.422;13.678;2022-10-16T14:04:40;101355.38;;;22.49;56.83
30073;BME280;16897;52.422;13.678;2022-10-16T14:08:46;101363.34;;;22.49;56.86
30073;BME280;16897;52.422;13.678;2022-10-16T14:13:03;101362.47;;;22.49;56.54
30073;BME280;16897;52.422;13.678;2022-10-16T14:17:06;101373.69;;;22.52;56.43
30073;BME280;16897;52.422;13.678;2022-10-16T14:21:13;101378.22;;;22.42;56.86
30073;BME280;16897;52.422;13.678;2022-10-16T14:29:20;101391.63;;;22.50;56.16
30073;BME280;16897;52.422;13.678;2022-10-16T14:33:33;101385.91;;;22.45;56.09
30073;BME280;16897;52.422;13.678;2022-10-16T14:37:35;101375.56;;;22.42;56.33
30073;BME280;16897;52.422;13.678;2022-10-16T14:41:49;101379.06;;;22.43;56.05
30073;BME280;16897;52.422;13.678;2022-10-16T14:45:53;101386.03;;;22.44;56.03
30073;BME280;16897;52.422;13.678;2022-10-16T14:49:56;101386.91;;;22.44;56.16
30073;BME280;16897;52.422;13.678;2022-10-16T14:54:00;101387.13;;;22.51;56.04
30073;BME280;16897;52.422;13.678;2022-10-16T14:58:03;101400.03;;;22.56;55.69
30073;BME280;16897;52.422;13.678;2022-10-16T15:02:27;101394.47;;;22.39;55.87
30073;BME280;16897;52.422;13.678;2022-10-16T15:06:29;101409.28;;;22.51;55.60
30073;BME280;16897;52.422;13.678;2022-10-16T15:10:35;101388.16;;;22.40;55.50
30073;BME280;16897;52.422;13.678;2022-10-16T15:14:39;101401.47;;;22.40;55.52
30073;BME280;16897;52.422;13.678;2022-10-16T15:18:41;101415.31;;;22.44;55.68
30073;BME280;16897;52.422;13.678;2022-10-16T15:22:42;101415.19;;;22.45;55.27
30073;BME280;16897;52.422;13.678;2022-10-16T15:26:44;101398.69;;;22.32;55.59
30073;BME280;16897;52.422;13.678;2022-10-16T15:30:50;101426.72;;;22.36;55.27
30073;BME280;16897;52.422;13.678;2022-10-16T15:34:52;101437.34;;;22.36;55.16
30073;BME280;16897;52.422;13.678;2022-10-16T15:38:54;101433.72;;;22.27;55.34
30073;BME280;16897;52.422;13.678;2022-10-16T15:42:56;101436.81;;;22.23;55.03
30073;BME280;16897;52.422;13.678;2022-10-16T15:46:57;101451.94;;;22.22;55.05
30073;BME280;16897;52.422;13.678;2022-10-16T15:51:00;101413.03;;;21.92;55.14
30073;BME280;16897;52.422;13.678;2022-10-16T15:55:11;101467.72;;;22.14;55.29
30073;BME280;16897;52.422;13.678;2022-10-16T15:59:12;101473.63;;;22.08;55.13
30073;BME280;16897;52.422;13.678;2022-10-16T16:03:14;101461.72;;;21.93;55.22
30073;BME280;16897;52.422;13.678;2022-10-16T16:07:15;101417.53;;;21.53;55.17
30073;BME280;16897;52.422;13.678;2022-10-16T16:11:18;101498.41;;;21.89;55.02
30073;BME280;16897;52.422;13.678;2022-10-16T16:15:22;101499.78;;;21.74;55.20
30073;BME280;16897;52.422;13.678;2022-10-16T16:19:23;101501.91;;;21.60;55.09
30073;BME280;16897;52.422;13.678;2022-10-16T16:23:25;101469.75;;;21.33;54.98
30073;BME280;16897;52.422;13.678;2022-10-16T16:27:26;101521.97;;;21.43;54.71
30073;BME280;16897;52.422;13.678;2022-10-16T16:31:31;101518.69;;;21.30;55.21
30073;BME280;16897;52.422;13.678;2022-10-16T16:35:33;101516.41;;;21.16;54.89
30073;BME280;16897;52.422;13.678;2022-10-16T16:39:35;101499.25;;;20.89;55.19
30073;BME280;16897;52.422;13.678;2022-10-16T16:43:36;101540.38;;;20.95;55.02
30073;BME280;16897;52.422;13.678;2022-10-16T16:47:39;101547.75;;;20.91;55.02
30073;BME280;16897;52.422;13.678;2022-10-16T16:51:41;101520.59;;;20.57;54.95
30073;BME280;16897;52.422;13.678;2022-10-16T16:55:43;101553.03;;;20.61;54.90
30073;BME280;16897;52.422;13.678;2022-10-16T16:59:45;101569.69;;;20.51;55.26
30073;BME280;16897;52.422;13.678;2022-10-16T17:03:49;101570.13;;;20.36;55.10
30073;BME280;16897;52.422;13.678;2022-10-16T17:07:51;101582.69;;;20.33;54.96
30073;BME280;16897;52.422;13.678;2022-10-16T17:11:53;101595.59;;;20.27;55.31
30073;BME280;16897;52.422;13.678;2022-10-16T17:15:54;101593.72;;;20.18;55.20
30073;BME280;16897;52.422;13.678;2022-10-16T17:19:56;101590.72;;;20.11;55.01
30073;BME280;16897;52.422;13.678;2022-10-16T17:23:59;101590.50;;;20.03;55.49
30073;BME280;16897;52.422;13.678;2022-10-16T17:28:01;101610.88;;;20.02;55.05
30073;BME280;16897;52.422;13.678;2022-10-16T17:32:03;101627.66;;;19.92;55.30
30073;BME280;16897;52.422;13.678;2022-10-16T17:36:05;101616.59;;;19.75;55.23
30073;BME280;16897;52.422;13.678;2022-10-16T17:40:09;101641.63;;;19.71;55.32
30073;BME280;16897;52.422;13.678;2022-10-16T17:44:11;101657.09;;;19.66;55.10
30073;BME280;16897;52.422;13.678;2022-10-16T17:48:19;101646.09;;;19.48;55.27
30073;BME280;16897;52.422;13.678;2022-10-16T17:52:21;101646.69;;;19.40;55.50
30073;BME280;16897;52.422;13.678;2022-10-16T17:56:24;101628.97;;;19.18;55.50
30073;BME280;16897;52.422;13.678;2022-10-16T18:00:25;101668.69;;;19.30;55.48
30073;BME280;16897;52.422;13.678;2022-10-16T18:04:27;101659.66;;;19.21;55.58
30073;BME280;16897;52.422;13.678;2022-10-16T18:08:29;101658.56;;;19.12;55.21
30073;BME280;16897;52.422;13.678;2022-10-16T18:12:31;101653.84;;;18.93;55.24
30073;BME280;16897;52.422;13.678;2022-10-16T18:16:33;101670.06;;;18.89;55.32
30073;BME280;16897;52.422;13.678;2022-10-16T18:20:37;101657.66;;;18.65;55.29
30073;BME280;16897;52.422;13.678;2022-10-16T18:24:39;101676.41;;;18.62;55.67
30073;BME280;16897;52.422;13.678;2022-10-16T18:28:41;101668.75;;;18.46;55.68
30073;BME280;16897;52.422;13.678;2022-10-16T18:32:43;101680.19;;;18.47;55.68
30073;BME280;16897;52.422;13.678;2022-10-16T18:36:45;101685.81;;;18.42;55.54
30073;BME280;16897;52.422;13.678;2022-10-16T18:40:46;101693.75;;;18.42;55.76
30073;BME280;16897;52.422;13.678;2022-10-16T18:44:48;101686.94;;;18.27;55.58
30073;BME280;16897;52.422;13.678;2022-10-16T18:48:51;101704.97;;;18.33;55.63
30073;BME280;16897;52.422;13.678;2022-10-16T18:52:54;101718.34;;;18.31;55.60
30073;BME280;16897;52.422;13.678;2022-10-16T18:56:56;101712.97;;;18.20;55.93
30073;BME280;16897;52.422;13.678;2022-10-16T19:01:03;101728.41;;;18.13;55.98
30073;BME280;16897;52.422;13.678;2022-10-16T19:05:05;101733.69;;;18.13;55.83
30073;BME280;16897;52.422;13.678;2022-10-16T19:09:10;101735.22;;;18.05;55.78
30073;BME280;16897;52.422;13.678;2022-10-16T19:13:11;101726.97;;;17.97;55.99
30073;BME280;16897;52.422;13.678;2022-10-16T19:17:13;101722.22;;;17.89;56.01
30073;BME280;16897;52.422;13.678;2022-10-16T19:21:16;101718.84;;;17.74;55.96
30073;BME280;16897;52.422;13.678;2022-10-16T19:25:19;101700.13;;;17.52;55.80
30073;BME280;16897;52.422;13.678;2022-10-16T19:29:22;101662.09;;;17.16;55.63
30073;BME280;16897;52.422;13.678;2022-10-16T19:33:24;101678.13;;;17.13;55.71
30073;BME280;16897;52.422;13.678;2022-10-16T19:37:27;101735.63;;;17.35;55.75
30073;BME280;16897;52.422;13.678;2022-10-16T19:41:30;101717.41;;;17.17;55.98
30073;BME280;16897;52.422;13.678;2022-10-16T19:45:33;101693.53;;;16.93;56.18
30073;BME280;16897;52.422;13.678;2022-10-16T19:49:34;101722.00;;;17.01;55.92
30073;BME280;16897;52.422;13.678;2022-10-16T19:53:36;101751.84;;;17.16;56.08
30073;BME280;16897;52.422;13.678;2022-10-16T19:57:37;101717.44;;;16.90;56.05
30073;BME280;16897;52.422;13.678;2022-10-16T20:01:39;101720.63;;;16.83;56.35
30073;BME280;16897;52.422;13.678;2022-10-16T20:05:55;101739.50;;;16.89;56.21
30073;BME280;16897;52.422;13.678;2022-10-16T20:10:00;101702.47;;;16.64;56.38
30073;BME280;16897;52.422;13.678;2022-10-16T20:14:04;101781.56;;;17.05;56.18
30073;BME280;16897;52.422;13.678;2022-10-16T20:18:06;101763.38;;;16.88;56.50
30073;BME280;16897;52.422;13.678;2022-10-16T20:22:08;101763.97;;;16.78;56.38
30073;BME280;16897;52.422;13.678;2022-10-16T20:26:10;101726.78;;;16.54;56.23
30073;BME280;16897;52.422;13.678;2022-10-16T20:30:12;101730.44;;;16.39;56.51
30073;BME280;16897;52.422;13.678;2022-10-16T20:34:14;101765.03;;;16.62;56.22
30073;BME280;16897;52.422;13.678;2022-10-16T20:38:17;101816.88;;;16.75;56.22
30073;BME280;16897;52.422;13.678;2022-10-16T20:42:19;101811.91;;;16.71;56.51
30073;BME280;16897;52.422;13.678;2022-10-16T20:46:24;101808.69;;;16.66;56.36
30073;BME280;16897;52.422;13.678;2022-10-16T20:50:30;101796.22;;;16.41;56.36
30073;BME280;16897;52.422;13.678;2022-10-16T20:54:32;101827.28;;;16.50;56.44
30073;BME280;16897;52.422;13.678;2022-10-16T20:58:35;101828.69;;;16.41;56.22
30073;BME280;16897;52.422;13.678;2022-10-16T21:02:37;101816.50;;;16.26;56.54
30073;BME280;16897;52.422;13.678;2022-10-16T21:06:38;101832.97;;;16.29;56.56
30073;BME280;16897;52.422;13.678;2022-10-16T21:10:40;101813.63;;;16.14;56.59
30073;BME280;16897;52.422;13.678;2022-10-16T21:14:42;101807.34;;;16.03;56.39
30073;BME280;16897;52.422;13.678;2022-10-16T21:18:43;101816.09;;;16.03;56.65
30073;BME280;16897;52.422;13.678;2022-10-16T21:22:45;101824.09;;;16.02;56.51
30073;BME280;16897;52.422;13.678;2022-10-16T21:26:46;101786.72;;;15.81;56.63
30073;BME280;16897;52.422;13.678;2022-10-16T21:30:48;101812.03;;;15.98;56.59
30073;BME280;16897;52.422;13.678;2022-10-16T21:34:49;101822.19;;;15.89;56.87
30073;BME280;16897;52.422;13.678;2022-10-16T21:38:51;101839.53;;;15.93;56.76
30073;BME280;16897;52.422;13.678;2022-10-16T21:42:53;101850.72;;;15.97;56.97
30073;BME280;16897;52.422;13.678;2022-10-16T21:46:55;101830.38;;;15.85;56.81
30073;BME280;16897;52.422;13.678;2022-10-16T21:50:56;101826.88;;;15.70;57.03
30073;BME280;16897;52.422;13.678;2022-10-16T21:54:58;101847.88;;;15.86;57.08
30073;BME280;16897;52.422;13.678;2022-10-16T21:58:59;101873.00;;;15.91;56.72
30073;BME280;16897;52.422;13.678;2022-10-16T22:03:01;101855.38;;;15.78;56.94
30073;BME280;16897;52.422;13.678;2022-10-16T22:07:02;101848.69;;;15.72;56.95
30073;BME280;16897;52.422;13.678;2022-10-16T22:11:19;101838.25;;;15.55;56.90
30073;BME280;16897;52.422;13.678;2022-10-16T22:15:21;101876.53;;;15.76;57.22
30073;BME280;16897;52.422;13.678;2022-10-16T22:19:23;101859.31;;;15.70;57.09
30073;BME280;16897;52.422;13.678;2022-10-16T22:23:25;101858.69;;;15.65;57.48
30073;BME280;16897;52.422;13.678;2022-10-16T22:27:27;101832.81;;;15.58;57.17
30073;BME280;16897;52.422;13.678;2022-10-16T22:31:29;101853.13;;;15.56;57.31